• Join FlightAware (Why Join?)
  • Login
  • US Flag 
11:02AM EDT


 

Airport Tracker/Info


-or-


 

Live Flight TrackerFlight Track Log ✈ SKW6492 ✈ 23-Jun-2013 ✈ KDEN - KCOD

Flight Track Log - Related Links

Times and Time Zones

All times are in EDT time to prevent confusion due to time zone crossing. See the SKW6492 flight status page for this flight to view local times or setup timezone preferences in your user account.

Time Position Orientation Groundspeed Altitude Reporting Facility
EDT Latitude Longitude Course Direction KTS MPH feet Rate Location/Type
01:37AM 40.1154 -104.8908 327° Northwest  Level Estimated
01:38AM 40.1999 -104.9637 327° Northwest  Level Estimated
01:39AM 40.2843 -105.0368 327° Northwest  Level Estimated
01:40AM 40.3687 -105.1100 327° Northwest  Level Estimated
01:41AM 40.4531 -105.1835 326° Northwest  Level Estimated
01:42AM 40.5374 -105.2571 326° Northwest  Level Estimated
01:43AM 40.6216 -105.3309 326° Northwest  Level Estimated
01:44AM 40.7058 -105.4049 326° Northwest  Level Estimated
01:45AM 40.7900 -105.4791 326° Northwest  Level Estimated
01:46AM 40.8741 -105.5535 326° Northwest  Level Estimated
01:47AM 40.9582 -105.6281 326° Northwest  Level Estimated
01:48AM 41.0422 -105.7028 326° Northwest  Level Estimated
01:49AM 41.1262 -105.7778 326° Northwest  Level Estimated
01:50AM 41.2101 -105.8529 326° Northwest  Level Estimated
01:51AM 41.2940 -105.9282 326° Northwest  Level Estimated
01:52AM 41.3778 -106.0038 326° Northwest  Level Estimated
01:53AM 41.4616 -106.0795 326° Northwest  Level Estimated
01:54AM 41.5453 -106.1554 326° Northwest  Level Estimated
01:55AM 41.6289 -106.2315 326° Northwest  Level Estimated
01:56AM 41.7126 -106.3078 326° Northwest  Level Estimated
01:57AM 41.7961 -106.3843 326° Northwest  Level Estimated
01:58AM 41.8797 -106.4611 326° Northwest  Level Estimated
01:59AM 41.9631 -106.5380 326° Northwest  Level Estimated
02:00AM 42.0466 -106.6151 326° Northwest  Level Estimated
02:01AM 42.1299 -106.6924 325° Northwest  Level Estimated
02:02AM 42.2132 -106.7699 325° Northwest  Level Estimated
02:03AM 42.2965 -106.8476 325° Northwest  Level Estimated
02:04AM 42.3797 -106.9256 325° Northwest  Level Estimated
02:05AM 42.4629 -107.0037 325° Northwest  Level Estimated
02:06AM 42.5460 -107.0820 325° Northwest  Level Estimated
02:07AM 42.6290 -107.1606 325° Northwest  Level Estimated
02:08AM 42.7120 -107.2393 325° Northwest  Level Estimated
02:09AM 42.7949 -107.3183 325° Northwest  Level Estimated
02:10AM 42.8778 -107.3975 325° Northwest  Level Estimated
02:11AM 42.9607 -107.4769 325° Northwest  Level Estimated
02:12AM 43.0434 -107.5565 325° Northwest  Level Estimated
02:13AM 43.1262 -107.6364 325° Northwest  Level Estimated
02:14AM 43.2088 -107.7164 325° Northwest  Level Estimated
02:15AM 43.2915 -107.7967 325° Northwest  Level Estimated
02:16AM 43.3740 -107.8771 325° Northwest  Level Estimated
02:17AM 43.4565 -107.9578 325° Northwest  Level Estimated
02:18AM 43.5389 -108.0387 325° Northwest  Level Estimated
02:19AM 43.6213 -108.1199 325° Northwest  Level Estimated
02:20AM 43.7037 -108.2012 324° Northwest  Level Estimated
02:21AM 43.7859 -108.2828 324° Northwest  Level Estimated
02:22AM 43.8681 -108.3646 324° Northwest  Level Estimated
02:23AM 43.9503 -108.4467 324° Northwest  Level Estimated
02:24AM 44.0324 -108.5290 324° Northwest  Level Estimated
02:25AM 44.1144 -108.6115 324° Northwest  Level Estimated
02:26AM 44.1964 -108.6942 324° Northwest  Level Estimated
02:27AM 44.2783 -108.7771 324° Northwest  Level Estimated
02:28AM 44.3601 -108.8603 324° Northwest  Level Estimated
02:29AM 44.4419 -108.9437 324° Northwest  Level Estimated
02:30AM 44.5202 -109.0238 324° Northwest  Level Estimated
02:31AM 44.5202 -109.0238 35° Northeast  Level Estimated
02:32AM 44.5202 -109.0238 35° Northeast  Level Estimated
02:33AM 44.5202 -109.0238 35° Northeast  Level Estimated
02:34AM 44.5202 -109.0238 35° Northeast  Level Estimated
02:35AM 44.5202 -109.0238 35° Northeast  Level Estimated